createdAt,value
2018-03-20T00:00:14.319Z,63.01
2018-03-20T00:00:54.827Z,64.14
2018-03-20T00:01:35.333Z,63.67
2018-03-20T00:02:15.846Z,63.45
2018-03-20T00:02:56.365Z,63.82
2018-03-20T00:03:36.856Z,64.3
2018-03-20T00:04:17.367Z,63.92
2018-03-20T00:04:57.879Z,64.3
2018-03-20T00:05:38.387Z,64.58
2018-03-20T00:06:18.906Z,64.77
2018-03-20T00:06:59.470Z,64.68
2018-03-20T00:07:39.946Z,64.71
2018-03-20T00:08:20.438Z,64.71
2018-03-20T00:09:00.979Z,64.42
2018-03-20T00:09:41.485Z,64.81
2018-03-20T00:10:21.988Z,64.33
2018-03-20T00:11:02.502Z,64.71
2018-03-20T00:11:43.025Z,64.04
2018-03-20T00:12:23.546Z,63.85
2018-03-20T00:13:04.051Z,64.04
2018-03-20T00:13:44.568Z,63.48
2018-03-20T00:14:25.071Z,63.29
2018-03-20T00:15:05.586Z,63.85
2018-03-20T00:15:46.097Z,63.95
2018-03-20T00:16:26.612Z,63.57
2018-03-20T00:17:07.137Z,63.67
2018-03-20T00:17:47.646Z,64.23
2018-03-20T00:18:28.168Z,64.04
2018-03-20T00:19:08.676Z,64.04
2018-03-20T00:19:49.221Z,63.57
2018-03-20T00:20:29.740Z,63.76
2018-03-20T00:21:10.250Z,63.57
2018-03-20T00:21:50.769Z,63.82
2018-03-20T00:22:31.308Z,63.82
2018-03-20T00:23:11.831Z,64.3
2018-03-20T00:23:52.349Z,64.68
2018-03-20T00:24:32.877Z,64.68
2018-03-20T00:25:13.382Z,64.77
2018-03-20T00:25:53.897Z,64.49
2018-03-20T00:26:34.386Z,64.39
2018-03-20T00:27:14.897Z,64.71
2018-03-20T00:27:55.409Z,64.23
2018-03-20T00:28:35.911Z,64.14
2018-03-20T00:29:16.413Z,64.23
2018-03-20T00:29:56.942Z,64.42
2018-03-20T00:30:37.452Z,65
2018-03-20T00:31:17.981Z,64.42
2018-03-20T00:31:58.491Z,64.42
2018-03-20T00:32:39.000Z,64.52
2018-03-20T00:33:19.528Z,64.81
2018-03-20T00:34:00.043Z,64.71
2018-03-20T00:34:40.557Z,64.71
2018-03-20T00:35:21.076Z,64.9
2018-03-20T00:36:01.618Z,64.81
2018-03-20T00:36:42.111Z,64.52
2018-03-20T00:37:22.627Z,64.71
2018-03-20T00:38:03.127Z,64.33
2018-03-20T00:38:43.648Z,64.14
2018-03-20T00:39:24.161Z,64.23
2018-03-20T00:40:04.688Z,64.14
2018-03-20T00:40:45.193Z,64.11
2018-03-20T00:41:25.712Z,64.3
2018-03-20T00:42:06.217Z,64.68
2018-03-20T00:42:46.733Z,64.3
2018-03-20T00:43:27.278Z,64.3
2018-03-20T00:44:07.801Z,64.3
2018-03-20T00:44:48.304Z,64.68
2018-03-20T00:45:28.816Z,64.68
2018-03-20T00:46:09.333Z,65.15
2018-03-20T00:46:49.859Z,65.25
2018-03-20T00:47:30.375Z,64.87
2018-03-20T00:48:10.898Z,65.25
2018-03-20T00:48:51.412Z,64.58
2018-03-20T00:49:31.919Z,64.87
2018-03-20T00:50:12.452Z,64.87
2018-03-20T00:50:52.959Z,64.87
2018-03-20T00:51:33.486Z,65.34
2018-03-20T00:52:13.994Z,65.15
2018-03-20T00:52:54.506Z,64.49
2018-03-20T00:53:35.025Z,64.87
2018-03-20T00:54:15.527Z,64.3
2018-03-20T00:54:56.038Z,64.49
2018-03-20T00:55:36.549Z,64.39
2018-03-20T00:56:17.048Z,64.11
2018-03-20T00:56:57.572Z,63.92
2018-03-20T00:57:38.080Z,64.11
2018-03-20T00:58:18.651Z,64.01
2018-03-20T00:58:59.118Z,64.11
2018-03-20T00:59:39.609Z,64.01
2018-03-20T01:00:20.126Z,64.11
2018-03-20T01:01:00.662Z,63.73
2018-03-20T01:01:41.223Z,64.2
2018-03-20T01:02:21.670Z,64.3
2018-03-20T01:03:02.181Z,64.39
2018-03-20T01:03:42.702Z,64.2
2018-03-20T01:04:23.224Z,64.87
2018-03-20T01:05:03.723Z,65.15
2018-03-20T01:05:44.233Z,65.25
2018-03-20T01:06:24.752Z,65.34
2018-03-20T01:07:05.265Z,65.34
2018-03-20T01:07:45.756Z,65.53
2018-03-20T01:08:26.258Z,64.68
2018-03-20T01:09:06.774Z,64.11
2018-03-20T01:09:47.261Z,64.61
2018-03-20T01:10:27.762Z,64.39
2018-03-20T01:11:08.288Z,64.39
2018-03-20T01:13:26.629Z,64.14
2018-03-20T01:14:07.137Z,64.77
2018-03-20T01:14:47.656Z,64.11
2018-03-20T01:15:28.187Z,63.73
2018-03-20T01:16:08.720Z,63.92
2018-03-20T01:16:49.236Z,64.2
2018-03-20T01:17:29.768Z,64.3
2018-03-20T01:18:10.264Z,64.58
2018-03-20T01:18:50.765Z,64.3
2018-03-20T01:19:31.275Z,63.92
2018-03-20T01:20:11.782Z,63.92
2018-03-20T01:20:52.305Z,64.58
2018-03-20T01:21:32.791Z,64.58
2018-03-20T01:22:13.320Z,64.77
2018-03-20T01:22:53.837Z,64.49
2018-03-20T01:23:34.346Z,64.68
2018-03-20T01:24:14.853Z,64.68
2018-03-20T01:24:55.366Z,64.49
2018-03-20T01:25:35.881Z,64.3
2018-03-20T01:26:16.391Z,64.49
2018-03-20T01:26:56.898Z,64.39
2018-03-20T01:27:37.414Z,64.3
2018-03-20T01:28:17.925Z,64.3
2018-03-20T01:28:58.445Z,64.49
2018-03-20T01:29:38.943Z,64.68
2018-03-20T01:30:19.454Z,64.3
2018-03-20T01:30:59.961Z,64.68
2018-03-20T01:31:40.469Z,64.68
2018-03-20T01:32:20.975Z,64.77
2018-03-20T01:33:01.488Z,64.11
2018-03-20T01:33:41.997Z,64.2
2018-03-20T01:34:22.513Z,64.58
2018-03-20T01:35:03.013Z,64.96
2018-03-20T01:35:43.536Z,64.96
2018-03-20T01:36:24.053Z,65.53
2018-03-20T01:37:04.589Z,65.63
2018-03-20T01:37:45.107Z,65.25
2018-03-20T01:38:25.616Z,64.87
2018-03-20T01:39:06.133Z,65.25
2018-03-20T01:39:46.661Z,65.25
2018-03-20T01:40:27.165Z,65.34
2018-03-20T01:41:07.675Z,64.96
2018-03-20T01:41:48.182Z,65.44
2018-03-20T01:42:28.725Z,64.77
2018-03-20T01:43:09.224Z,65.34
2018-03-20T01:43:49.730Z,64.11
2018-03-20T01:44:30.243Z,64.68
2018-03-20T01:45:10.749Z,64.68
2018-03-20T01:45:51.259Z,64.68
2018-03-20T01:46:31.770Z,64.2
2018-03-20T01:47:12.305Z,64.49
2018-03-20T01:47:52.804Z,64.49
2018-03-20T01:48:33.330Z,64.77
2018-03-20T01:49:13.840Z,64.49
2018-03-20T01:49:54.348Z,64.2
2018-03-20T01:50:34.859Z,64.68
2018-03-20T01:51:15.367Z,64.87
2018-03-20T01:51:55.889Z,64.68
2018-03-20T01:52:36.395Z,64.58
2018-03-20T01:53:16.909Z,64.68
2018-03-20T01:53:57.423Z,65.25
2018-03-20T01:54:37.933Z,65.25
2018-03-20T01:55:18.436Z,65.34
2018-03-20T01:55:58.945Z,64.96
2018-03-20T01:56:39.453Z,65.44
2018-03-20T01:57:19.989Z,65.63
2018-03-20T01:58:00.509Z,65.72
2018-03-20T01:58:41.014Z,65.63
2018-03-20T01:59:21.528Z,65.44
2018-03-20T02:00:02.041Z,65.34
2018-03-20T02:00:42.559Z,65.72
2018-03-20T02:01:23.064Z,65.72
2018-03-20T02:02:03.552Z,65.25
2018-03-20T02:02:44.059Z,64.58
2018-03-20T02:03:24.576Z,64.39
2018-03-20T02:04:05.087Z,64.77
2018-03-20T02:04:45.608Z,64.68
2018-03-20T02:05:26.117Z,65.34
2018-03-20T02:06:06.633Z,65.44
2018-03-20T02:06:47.142Z,64.96
2018-03-20T02:07:27.655Z,65.44
2018-03-20T02:08:08.166Z,65.53
2018-03-20T02:08:48.669Z,65.44
2018-03-20T02:09:29.184Z,65.44
2018-03-20T02:10:09.695Z,65.34
2018-03-20T02:10:50.221Z,64.87
2018-03-20T02:11:30.750Z,65.21
2018-03-20T02:12:11.250Z,65.02
2018-03-20T02:12:51.771Z,65.44
2018-03-20T02:13:32.276Z,64.87
2018-03-20T02:14:12.809Z,65.34
2018-03-20T02:14:53.310Z,64.49
2018-03-20T02:15:33.837Z,64.87
2018-03-20T02:16:14.347Z,65.4
2018-03-20T02:16:54.857Z,65.21
2018-03-20T02:17:35.367Z,65.4
2018-03-20T02:18:15.895Z,65.31
2018-03-20T02:18:56.413Z,65.21
2018-03-20T02:19:36.931Z,65.4
2018-03-20T02:20:17.454Z,65.4
2018-03-20T02:20:57.958Z,65.25
2018-03-20T02:21:38.471Z,65.31
2018-03-20T02:22:18.991Z,65.25
2018-03-20T02:23:00.253Z,65.31
2018-03-20T02:23:40.014Z,65.21
2018-03-20T02:24:20.542Z,65.21
2018-03-20T02:25:01.066Z,65.59
2018-03-20T02:25:41.582Z,65.59
2018-03-20T02:26:22.084Z,65.21
2018-03-20T02:27:02.601Z,65.59
2018-03-20T02:27:43.108Z,65.78
2018-03-20T02:28:23.614Z,65.59
2018-03-20T02:29:04.122Z,65.97
2018-03-20T02:29:44.632Z,65.5
2018-03-20T02:30:25.135Z,65.88
2018-03-20T02:31:05.652Z,65.5
2018-03-20T02:31:46.172Z,65.97
2018-03-20T02:32:26.681Z,65.69
2018-03-20T02:33:07.187Z,65.21
2018-03-20T02:33:47.694Z,65.5
2018-03-20T02:34:28.193Z,65.59
2018-03-20T02:35:08.707Z,65.5
2018-03-20T02:35:49.214Z,65.63
2018-03-20T02:36:29.719Z,65.78
2018-03-20T02:37:10.236Z,65.59
2018-03-20T02:37:50.743Z,65.34
2018-03-20T02:38:31.250Z,65.5
2018-03-20T02:39:11.773Z,65.78
2018-03-20T02:39:52.283Z,65.06
2018-03-20T02:40:32.800Z,65.78
2018-03-20T02:41:13.323Z,65.78
2018-03-20T02:41:53.830Z,65.72
2018-03-20T02:42:34.352Z,65.59
2018-03-20T02:43:14.859Z,65.4
2018-03-20T02:43:55.375Z,65.31
2018-03-20T02:44:35.881Z,64.83
2018-03-20T02:45:16.406Z,65.5
2018-03-20T02:45:56.918Z,65.21
2018-03-20T02:46:37.426Z,64.45
2018-03-20T02:47:17.953Z,65.02
2018-03-20T02:47:58.458Z,64.64
2018-03-20T02:48:38.976Z,64.58
2018-03-20T02:49:19.509Z,64.49
2018-03-20T02:50:00.016Z,64.77
2018-03-20T02:50:40.528Z,64.68
2018-03-20T02:51:21.036Z,64.64
2018-03-20T02:52:01.535Z,64.45
2018-03-20T02:52:42.061Z,64.55
2018-03-20T02:53:22.559Z,64.07
2018-03-20T02:54:03.065Z,64.45
2018-03-20T02:54:43.579Z,64.74
2018-03-20T02:55:24.100Z,64.74
2018-03-20T02:56:04.608Z,64.64
2018-03-20T02:56:45.132Z,64.77
2018-03-20T02:57:25.638Z,64.49
2018-03-20T02:58:06.152Z,64.58
2018-03-20T02:58:46.660Z,64.36
2018-03-20T02:59:27.179Z,64.36
2018-03-20T03:00:07.679Z,64.64
2018-03-20T03:00:48.191Z,64.07
2018-03-20T03:01:28.711Z,64.55
2018-03-20T03:02:09.222Z,64.11
2018-03-20T03:02:49.718Z,64.64
2018-03-20T03:03:30.229Z,65.4
2018-03-20T03:04:10.723Z,65.4
2018-03-20T03:04:51.233Z,65.25
2018-03-20T03:05:31.730Z,65.63
2018-03-20T03:06:12.231Z,65.5
2018-03-20T03:06:52.732Z,65.4
2018-03-20T03:07:33.251Z,66.06
2018-03-20T03:08:13.762Z,66.06
2018-03-20T03:08:54.268Z,66.35
2018-03-20T03:09:34.782Z,67.11
2018-03-20T03:10:15.291Z,66.92
2018-03-20T03:10:55.805Z,67.01
2018-03-20T03:11:36.316Z,67.11
2018-03-20T03:12:16.855Z,67.3
2018-03-20T03:12:57.365Z,67.11
2018-03-20T03:13:37.891Z,66.92
2018-03-20T03:14:18.414Z,67.24
2018-03-20T03:14:58.915Z,67.49
2018-03-20T03:15:39.428Z,67.3
2018-03-20T03:16:19.948Z,67.77
2018-03-20T03:17:00.462Z,68.15
2018-03-20T03:17:40.975Z,68.43
2018-03-20T03:18:21.484Z,68.24
2018-03-20T03:19:02.003Z,68.33
2018-03-20T03:19:42.511Z,68.71
2018-03-20T03:20:23.035Z,68.62
2018-03-20T03:21:03.548Z,68.52
2018-03-20T03:21:44.055Z,69
2018-03-20T03:22:24.562Z,69.57
2018-03-20T03:23:05.073Z,69.76
2018-03-20T03:23:45.588Z,69.85
2018-03-20T03:24:26.108Z,70.32
2018-03-20T03:25:06.613Z,70.23
2018-03-20T03:25:47.114Z,70.51
2018-03-20T03:26:27.620Z,70.51
2018-03-20T03:27:08.131Z,70.04
2018-03-20T03:27:48.634Z,70.04
2018-03-20T03:28:29.138Z,70.14
2018-03-20T03:29:09.656Z,69.76
2018-03-20T03:29:50.161Z,70.14
2018-03-20T03:30:30.681Z,69.76
2018-03-20T03:31:11.182Z,70.32
2018-03-20T03:31:51.710Z,69.98
2018-03-20T03:32:32.244Z,70.45
2018-03-20T03:33:12.706Z,70.23
2018-03-20T03:33:53.222Z,70.7
2018-03-20T03:34:33.755Z,70.61
2018-03-20T03:35:14.265Z,70.42
2018-03-20T03:35:54.788Z,71.17
2018-03-20T03:36:35.296Z,70.7
2018-03-20T03:37:15.813Z,70.61
2018-03-20T03:37:56.327Z,70.61
2018-03-20T03:38:36.850Z,71.17
2018-03-20T03:39:17.363Z,71.36
2018-03-20T03:39:57.880Z,71.27
2018-03-20T03:40:38.435Z,71.36
2018-03-20T03:41:18.981Z,70.7
2018-03-20T03:41:59.526Z,71.36
2018-03-20T03:42:40.034Z,71.27
2018-03-20T03:43:20.551Z,71.65
2018-03-20T03:44:01.074Z,72.31
2018-03-20T03:44:41.584Z,71.84
2018-03-20T03:45:22.098Z,72.03
2018-03-20T03:46:02.608Z,72.12
2018-03-20T03:46:43.115Z,72.22
2018-03-20T03:47:23.634Z,72.12
2018-03-20T03:48:04.141Z,71.84
2018-03-20T03:48:44.650Z,72.03
2018-03-20T03:49:25.149Z,72.69
2018-03-20T03:50:05.664Z,72.5
2018-03-20T03:50:46.172Z,72.78
2018-03-20T03:51:26.683Z,72.6
2018-03-20T03:52:07.199Z,72.6
2018-03-20T03:52:47.713Z,72.41
2018-03-20T03:53:28.235Z,72.5
2018-03-20T03:54:08.740Z,72.12
2018-03-20T03:54:49.239Z,72.03
2018-03-20T03:55:29.764Z,72.31
2018-03-20T03:56:10.266Z,72.41
2018-03-20T03:56:50.774Z,72.6
2018-03-20T03:57:31.277Z,72.97
2018-03-20T03:58:11.773Z,73.07
2018-03-20T03:58:52.286Z,73.16
2018-03-20T03:59:32.804Z,72.88
2018-03-20T04:00:13.326Z,73.16
2018-03-20T04:00:53.842Z,72.12
2018-03-20T04:01:34.355Z,72.69
2018-03-20T04:02:14.877Z,72.31
2018-03-20T04:02:55.390Z,72.31
2018-03-20T04:03:35.904Z,72.41
2018-03-20T04:04:16.429Z,72.41
2018-03-20T04:04:56.938Z,72.69
2018-03-20T04:05:37.452Z,72.88
2018-03-20T04:06:17.962Z,72.31
2018-03-20T04:06:58.477Z,72.78
2018-03-20T04:07:38.996Z,72.6
2018-03-20T04:08:19.506Z,72.41
2018-03-20T04:09:00.032Z,71.84
2018-03-20T04:09:40.550Z,72.12
2018-03-20T04:10:21.062Z,72.12
2018-03-20T04:11:01.583Z,72.12
2018-03-20T04:11:42.089Z,72.12
2018-03-20T04:12:22.599Z,72.41
2018-03-20T04:13:03.113Z,72.22
2018-03-20T04:13:43.622Z,72.69
2018-03-20T04:14:24.140Z,72.69
2018-03-20T04:15:04.637Z,72.6
2018-03-20T04:15:45.140Z,72.69
2018-03-20T04:16:25.645Z,72.69
2018-03-20T04:17:06.162Z,72.6
2018-03-20T04:17:46.671Z,72.31
2018-03-20T04:18:27.195Z,72.12
2018-03-20T04:19:07.715Z,72.12
2018-03-20T04:19:48.235Z,72.12
2018-03-20T04:20:28.735Z,72.12
2018-03-20T04:21:09.259Z,71.93
2018-03-20T04:21:49.755Z,72.12
2018-03-20T04:22:30.256Z,72.12
2018-03-20T04:23:10.797Z,71.65
2018-03-20T04:23:51.313Z,72.41
2018-03-20T04:24:31.822Z,72.12
2018-03-20T04:25:12.331Z,71.74
2018-03-20T04:25:52.834Z,72.41
2018-03-20T04:26:33.345Z,71.65
2018-03-20T04:27:13.855Z,71.93
2018-03-20T04:27:54.370Z,71.74
2018-03-20T04:28:34.883Z,71.74
2018-03-20T04:29:15.391Z,71.93
2018-03-20T04:29:55.905Z,72.03
2018-03-20T04:30:36.437Z,72.22
2018-03-20T04:31:16.948Z,72.31
2018-03-20T04:31:57.457Z,72.69
2018-03-20T04:32:37.991Z,72.5
2018-03-20T04:33:18.472Z,72.41
2018-03-20T04:33:58.987Z,72.31
2018-03-20T04:34:39.501Z,72.22
2018-03-20T04:35:20.025Z,72.69
2018-03-20T04:36:00.525Z,72.31
2018-03-20T04:36:41.031Z,72.78
2018-03-20T04:37:21.533Z,72.88
2018-03-20T04:38:02.122Z,72.78
2018-03-20T04:38:42.627Z,73.26
2018-03-20T04:39:23.144Z,72.88
2018-03-20T04:40:03.675Z,72.97
2018-03-20T04:40:44.188Z,73.07
2018-03-20T04:41:24.701Z,72.88
2018-03-20T04:42:05.209Z,72.97
2018-03-20T04:42:45.715Z,72.97
2018-03-20T04:43:26.225Z,72.75
2018-03-20T04:44:06.735Z,73.35
2018-03-20T04:44:47.250Z,72.88
2018-03-20T04:45:27.773Z,72.78
2018-03-20T04:46:08.283Z,73.07
2018-03-20T04:46:48.809Z,72.97
2018-03-20T04:47:29.312Z,72.88
2018-03-20T04:48:09.818Z,73.07
2018-03-20T04:48:50.323Z,73.07
2018-03-20T04:49:30.832Z,73.13
2018-03-20T04:50:11.342Z,73.22
2018-03-20T04:50:51.855Z,73.5
2018-03-20T04:51:32.349Z,73.88
2018-03-20T04:52:12.867Z,73.79
2018-03-20T04:52:53.373Z,73.79
2018-03-20T04:53:33.885Z,73.98
2018-03-20T04:54:14.389Z,74.07
2018-03-20T04:54:54.926Z,74.07
2018-03-20T04:55:35.427Z,74.36
2018-03-20T04:56:15.938Z,73.92
2018-03-20T04:56:56.459Z,73.45
2018-03-20T04:57:36.965Z,73.54
2018-03-20T04:58:17.479Z,73.13
2018-03-20T04:58:57.985Z,73.32
2018-03-20T04:59:38.495Z,73.5
2018-03-20T05:00:19.006Z,73.69
2018-03-20T05:00:59.500Z,73.79
2018-03-20T05:01:40.023Z,73.41
2018-03-20T05:02:20.541Z,73.79
2018-03-20T05:03:01.067Z,73.79
2018-03-20T05:03:41.586Z,73.79
2018-03-20T05:04:22.111Z,73.69
2018-03-20T05:05:02.610Z,74.07
2018-03-20T05:05:43.130Z,73.69
2018-03-20T05:06:23.644Z,73.6
2018-03-20T05:07:04.156Z,73.26
2018-03-20T05:07:44.669Z,73.35
2018-03-20T05:08:25.196Z,73.35
2018-03-20T05:09:05.714Z,73.45
2018-03-20T05:09:46.216Z,72.56
2018-03-20T05:10:26.725Z,73.41
2018-03-20T05:11:07.230Z,73.41
2018-03-20T05:11:47.744Z,73.45
2018-03-20T05:12:28.251Z,72.75
2018-03-20T05:13:08.762Z,73.32
2018-03-20T05:13:49.277Z,72.85
2018-03-20T05:14:29.780Z,73.22
2018-03-20T05:15:10.293Z,73.54
2018-03-20T05:15:50.814Z,73.26
2018-03-20T05:16:31.326Z,73.26
2018-03-20T05:17:11.844Z,73.26
2018-03-20T05:17:52.381Z,73.35
2018-03-20T05:18:32.912Z,73.07
2018-03-20T05:19:13.436Z,73.03
2018-03-20T05:19:53.955Z,73.22
2018-03-20T05:20:34.462Z,72.75
2018-03-20T05:21:14.968Z,72.66
2018-03-20T05:21:55.481Z,72.94
2018-03-20T05:22:35.998Z,72.97
2018-03-20T05:23:16.509Z,72.85
2018-03-20T05:23:57.025Z,72.94
2018-03-20T05:24:37.538Z,73.03
2018-03-20T05:25:18.044Z,73.41
2018-03-20T05:25:58.561Z,73.13
2018-03-20T05:26:39.060Z,73.41
2018-03-20T05:27:19.594Z,73.41
2018-03-20T05:28:00.106Z,73.22
2018-03-20T05:28:40.620Z,73.03
2018-03-20T05:29:21.133Z,73.22
2018-03-20T05:30:01.644Z,73.03
2018-03-20T05:30:42.157Z,73.13
2018-03-20T05:31:22.668Z,73.22
2018-03-20T05:32:03.219Z,73.22
2018-03-20T05:32:43.732Z,73.13
2018-03-20T05:33:24.242Z,72.94
2018-03-20T05:34:04.749Z,73.26
2018-03-20T05:34:45.266Z,72.69
2018-03-20T05:35:26.387Z,72.31
2018-03-20T05:36:07.000Z,72.94
2018-03-20T05:36:47.537Z,73.13
2018-03-20T05:37:28.063Z,72.94
2018-03-20T05:38:08.596Z,72.75
2018-03-20T05:38:49.471Z,72.75
2018-03-20T05:39:30.175Z,72.94
2018-03-20T05:40:10.695Z,72.85
2018-03-20T05:40:51.219Z,73.13
2018-03-20T05:41:31.725Z,73.13
2018-03-20T05:42:12.226Z,73.03
2018-03-20T05:42:52.837Z,73.03
2018-03-20T05:43:33.345Z,73.13
2018-03-20T05:44:13.901Z,73.03
2018-03-20T05:44:54.411Z,72.97
2018-03-20T05:45:34.925Z,73.07
2018-03-20T05:46:15.457Z,72.75
2018-03-20T05:46:55.957Z,72.78
2018-03-20T05:47:36.533Z,72.6
2018-03-20T05:48:16.995Z,72.12
2018-03-20T05:48:57.501Z,72.78
2018-03-20T05:49:38.013Z,72.5
2018-03-20T05:50:18.525Z,72.41
2018-03-20T05:50:59.045Z,71.93
2018-03-20T05:51:39.561Z,71.84
2018-03-20T05:52:20.074Z,71.84
2018-03-20T05:53:00.573Z,71.93
2018-03-20T05:53:41.084Z,72.03
2018-03-20T05:54:21.742Z,72.22
2018-03-20T05:55:02.121Z,72.03
2018-03-20T05:55:42.597Z,72.12
2018-03-20T05:56:23.099Z,71.93
2018-03-20T05:57:03.610Z,71.93
2018-03-20T05:57:44.091Z,72.12
2018-03-20T05:58:24.592Z,71.84
2018-03-20T05:59:05.107Z,72.12
2018-03-20T05:59:45.606Z,72.22
2018-03-20T06:00:26.132Z,72.22
2018-03-20T06:01:06.694Z,71.74
2018-03-20T06:01:47.210Z,71.36
2018-03-20T06:02:27.722Z,71.36
2018-03-20T06:03:08.255Z,71.17
2018-03-20T06:03:48.752Z,70.42
2018-03-20T06:04:29.277Z,70.7
2018-03-20T06:05:09.789Z,70.61
2018-03-20T06:05:50.301Z,70.51
2018-03-20T06:06:30.812Z,70.42
2018-03-20T06:07:11.333Z,70.23
2018-03-20T06:07:51.839Z,70.32
2018-03-20T06:08:32.352Z,70.14
2018-03-20T06:09:12.921Z,70.04
2018-03-20T06:09:53.444Z,70.04
2018-03-20T06:10:33.977Z,69.95
2018-03-20T06:11:14.519Z,69.85
2018-03-20T06:11:55.053Z,69.57
2018-03-20T06:12:35.577Z,69.38
2018-03-20T06:13:16.031Z,70.04
2018-03-20T06:13:56.578Z,70.14
2018-03-20T06:14:37.028Z,69.85
2018-03-20T06:15:17.503Z,70.14
2018-03-20T06:15:57.969Z,70.14
2018-03-20T06:16:38.507Z,69.95
2018-03-20T06:17:18.976Z,70.17
2018-03-20T06:17:59.441Z,70.74
2018-03-20T06:18:39.942Z,70.79
2018-03-20T06:19:20.419Z,71.27
2018-03-20T06:20:00.919Z,70.89
2018-03-20T06:20:41.428Z,70.42
2018-03-20T06:21:21.995Z,70.42
2018-03-20T06:22:02.476Z,71.55
2018-03-20T06:22:42.875Z,71.46
2018-03-20T06:23:23.465Z,71.21
2018-03-20T06:24:03.843Z,71.31
2018-03-20T06:24:44.812Z,70.36
2018-03-20T06:25:24.808Z,69.89
2018-03-20T06:26:05.286Z,68.94
2018-03-20T06:26:45.788Z,69.41
2018-03-20T06:27:26.337Z,68.65
2018-03-20T06:28:06.934Z,68.75
2018-03-20T06:28:47.565Z,69.89
2018-03-20T06:29:29.568Z,70.07
2018-03-20T06:30:10.175Z,70.98
2018-03-20T06:30:50.613Z,71.69
2018-03-20T06:31:31.141Z,72.03
2018-03-20T06:32:11.573Z,71.97
2018-03-20T06:32:52.041Z,72.22
2018-03-20T06:33:32.549Z,72.53
2018-03-20T06:34:13.070Z,72.44
2018-03-20T06:34:53.588Z,71.5
2018-03-20T06:35:33.992Z,70.93
2018-03-20T06:36:14.495Z,69.98
2018-03-20T06:36:54.962Z,69.03
2018-03-20T06:37:35.466Z,69.03
2018-03-20T06:38:15.949Z,69.41
2018-03-20T06:38:56.420Z,71.31
2018-03-20T06:39:36.909Z,73.2
2018-03-20T06:40:17.403Z,72.53
2018-03-20T06:40:57.868Z,71.78
2018-03-20T06:41:38.410Z,70.17
2018-03-20T06:42:18.876Z,68.37
2018-03-20T06:42:59.351Z,68.56
2018-03-20T06:43:39.883Z,70.64
2018-03-20T06:44:20.366Z,72.16
2018-03-20T06:45:00.893Z,72.92
2018-03-20T06:45:41.343Z,73.11
2018-03-20T06:46:21.844Z,72.53
2018-03-20T06:47:02.335Z,72.82
2018-03-20T06:47:42.791Z,72.34
2018-03-20T06:48:23.272Z,71.78
2018-03-20T06:49:03.808Z,69.79
2018-03-20T06:49:44.266Z,68.37
2018-03-20T06:50:24.824Z,67.8
2018-03-20T06:51:05.348Z,68.94
2018-03-20T06:51:45.782Z,70.36
2018-03-20T06:52:26.300Z,72.92
2018-03-20T06:53:06.774Z,71.21
2018-03-20T06:53:47.294Z,70.26
2018-03-20T06:54:27.946Z,70.83
2018-03-20T06:55:08.439Z,71.59
2018-03-20T06:55:48.992Z,71.88
2018-03-20T06:56:29.378Z,71.97
2018-03-20T06:57:10.031Z,71.78
2018-03-20T06:57:50.332Z,72.25
2018-03-20T06:58:30.921Z,70.36
2018-03-20T06:59:11.348Z,69.79
2018-03-20T06:59:51.829Z,68.46
2018-03-20T07:00:32.427Z,69.32
2018-03-20T07:01:12.907Z,69.51
2018-03-20T07:01:53.418Z,68.27
2018-03-20T07:02:33.905Z,68.56
2018-03-20T07:03:14.346Z,74.75
2018-03-20T07:03:54.904Z,78.07
2018-03-20T07:04:35.329Z,75.98
2018-03-20T07:05:15.882Z,72.29
2018-03-20T07:05:56.366Z,71.34
2018-03-20T07:06:36.912Z,71.53
2018-03-20T07:07:17.421Z,70.68
2018-03-20T07:07:57.876Z,74.56
2018-03-20T07:08:38.425Z,81.2
2018-03-20T07:09:19.042Z,88.44
2018-03-20T07:09:59.486Z,88.06
2018-03-20T07:10:39.847Z,99.99
2018-03-20T07:11:20.522Z,99.99
2018-03-20T07:12:01.015Z,99.99
2018-03-20T07:12:41.510Z,99.99
2018-03-20T07:13:22.098Z,99.99
2018-03-20T07:14:02.517Z,99.99
2018-03-20T07:14:42.999Z,99.53
2018-03-20T07:15:23.461Z,92.52
2018-03-20T07:16:03.940Z,89.96
2018-03-20T07:16:44.442Z,87.02
2018-03-20T07:17:24.969Z,85.69
2018-03-20T07:18:05.453Z,84.84
2018-03-20T07:18:45.864Z,82.28
2018-03-20T07:19:26.331Z,81.14
2018-03-20T07:20:06.835Z,86.83
2018-03-20T07:20:47.689Z,91.09
2018-03-20T07:21:28.154Z,94.74
2018-03-20T07:22:08.595Z,91.85
2018-03-20T07:22:49.131Z,84.46
2018-03-20T07:23:29.591Z,79.63
2018-03-20T07:24:10.114Z,76.4
2018-03-20T07:24:56.730Z,74.22
2018-03-20T07:25:36.634Z,75.17
2018-03-20T07:26:17.122Z,78.67
2018-03-20T07:26:57.695Z,75.55
2018-03-20T07:27:38.145Z,72.14
2018-03-20T07:28:18.682Z,71.28
2018-03-20T07:28:59.132Z,70.9
2018-03-20T07:29:39.620Z,70.34
2018-03-20T07:30:20.097Z,69.1
2018-03-20T07:31:00.632Z,69.2
2018-03-20T07:31:41.126Z,69.86
2018-03-20T07:32:21.712Z,68.44
2018-03-20T07:33:02.080Z,68.63
2018-03-20T07:33:42.576Z,68.91
2018-03-20T07:34:23.255Z,69.01
2018-03-20T07:35:03.612Z,67.58
2018-03-20T07:35:44.081Z,67.3
2018-03-20T07:36:24.587Z,67.49
2018-03-20T07:37:05.055Z,67.3
2018-03-20T07:37:45.532Z,69.48
2018-03-20T07:38:26.074Z,69.2
2018-03-20T07:39:06.584Z,69.48
2018-03-20T07:39:47.025Z,69.57
2018-03-20T07:40:27.513Z,68.25
2018-03-20T07:41:08.026Z,68.54
2018-03-20T07:41:48.669Z,68.25
2018-03-20T07:42:29.142Z,68.82
2018-03-20T07:43:09.617Z,68.63
2018-03-20T07:43:50.060Z,67.11
2018-03-20T07:44:30.567Z,66.93
2018-03-20T07:45:11.106Z,68.44
2018-03-20T07:45:51.540Z,72.14
2018-03-20T07:46:32.083Z,73.08
2018-03-20T07:47:12.582Z,75.64
2018-03-20T07:47:53.015Z,77.35
2018-03-20T07:48:34.134Z,82.89
2018-03-20T07:49:14.632Z,92.57
2018-03-20T07:49:55.196Z,97.5
2018-03-20T07:50:35.669Z,93.32
2018-03-20T07:51:16.287Z,89.15
2018-03-20T07:51:56.765Z,95.98
2018-03-20T07:52:37.279Z,99.99
2018-03-20T07:53:18.137Z,99.99
2018-03-20T07:53:58.616Z,99.96
2018-03-20T07:54:39.179Z,91.14
2018-03-20T07:55:19.711Z,82.79
2018-03-20T07:56:00.689Z,79.38
2018-03-20T07:56:41.472Z,77.67
2018-03-20T07:57:22.004Z,76.73
2018-03-20T07:58:02.495Z,73.03
2018-03-20T07:58:43.034Z,71.6
2018-03-20T07:59:23.586Z,73.5
2018-03-20T08:00:04.315Z,77.29
2018-03-20T08:00:44.828Z,84.88
2018-03-20T08:01:25.457Z,92.57
2018-03-20T08:02:06.155Z,99.99
2018-03-20T08:02:46.660Z,96.73
2018-03-20T08:03:27.141Z,87.92
2018-03-20T08:04:07.612Z,84.88
2018-03-20T08:04:48.176Z,77.58
2018-03-20T08:05:28.618Z,73.03
2018-03-20T08:06:09.102Z,70.84
2018-03-20T08:06:49.922Z,68.48
2018-03-20T08:07:30.407Z,67.21
2018-03-20T08:08:10.933Z,67.02
2018-03-20T08:08:51.450Z,64.36
2018-03-20T08:09:32.174Z,64.36
2018-03-20T08:10:12.964Z,64.74
2018-03-20T08:10:53.434Z,64.17
2018-03-20T08:11:33.912Z,64.27
2018-03-20T08:12:14.912Z,63.13
2018-03-20T08:12:55.357Z,62.37
2018-03-20T08:13:35.908Z,61.8
2018-03-20T08:14:16.367Z,62.69
2018-03-20T08:14:57.116Z,64.17
2018-03-20T08:15:37.619Z,63.82
2018-03-20T08:16:18.150Z,64.78
2018-03-20T08:16:59.109Z,64.59
2018-03-20T08:17:39.683Z,63.26
2018-03-20T08:18:20.376Z,63.04
2018-03-20T08:19:00.839Z,63.32
2018-03-20T08:19:41.364Z,62.66
2018-03-20T08:20:21.884Z,62.08
2018-03-20T08:21:02.352Z,62.66
2018-03-20T08:21:42.872Z,63.54
2018-03-20T08:22:23.417Z,65.16
2018-03-20T08:23:03.863Z,65.16
2018-03-20T08:23:44.330Z,65.34
2018-03-20T08:24:25.118Z,65.53
2018-03-20T08:25:05.582Z,67.14
2018-03-20T08:25:46.109Z,67.05
2018-03-20T08:26:26.573Z,66.77
2018-03-20T08:27:07.221Z,70.28
2018-03-20T08:27:47.509Z,70.65
2018-03-20T08:28:28.019Z,70.18
2018-03-20T08:29:08.534Z,82.89
2018-03-20T08:29:49.067Z,90.19
2018-03-20T08:30:29.635Z,88.58
2018-03-20T08:31:10.086Z,89.15
2018-03-20T08:31:50.552Z,83.84
2018-03-20T08:32:31.120Z,86.02
2018-03-20T08:33:11.521Z,84.31
2018-03-20T08:33:52.029Z,78.72
2018-03-20T08:34:32.560Z,74.16
2018-03-20T08:35:13.041Z,69.71
2018-03-20T08:35:53.575Z,67.05
2018-03-20T08:36:34.125Z,65.72
2018-03-20T08:37:14.588Z,65.44
2018-03-20T08:37:55.121Z,64.2
2018-03-20T08:38:35.615Z,64.97
2018-03-20T08:39:16.148Z,65.06
2018-03-20T08:39:56.606Z,65.72
2018-03-20T08:40:37.079Z,66.01
2018-03-20T08:41:17.680Z,65.82
2018-03-20T08:41:58.114Z,64.78
2018-03-20T08:42:38.652Z,63.64
2018-03-20T08:43:19.168Z,62.12
2018-03-20T08:43:59.654Z,60.7
2018-03-20T08:44:40.129Z,59.63
2018-03-20T08:45:20.782Z,59.15